sensor_id;sensor_type;location;lat;lon;timestamp;pressure;altitude;pressure_sealevel;temperature;humidity
1207;BME280;593;53.184;8.216;2023-12-29T00:00:04;99966.41;;;11.67;100.00
1207;BME280;593;53.184;8.216;2023-12-29T00:02:30;99972.13;;;11.66;100.00
1207;BME280;593;53.184;8.216;2023-12-29T00:04:55;99960.75;;;11.64;100.00
1207;BME280;593;53.184;8.216;2023-12-29T00:07:20;99970.75;;;11.68;100.00
1207;BME280;593;53.184;8.216;2023-12-29T00:09:46;99961.72;;;11.68;100.00
1207;BME280;593;53.184;8.216;2023-12-29T00:12:11;99976.47;;;11.67;100.00
1207;BME280;593;53.184;8.216;2023-12-29T00:14:38;99983.53;;;11.68;100.00
1207;BME280;593;53.184;8.216;2023-12-29T00:17:04;99976.19;;;11.68;100.00
1207;BME280;593;53.184;8.216;2023-12-29T00:19:29;99937.03;;;11.64;100.00
1207;BME280;593;53.184;8.216;2023-12-29T00:21:55;99967.19;;;11.68;100.00
1207;BME280;593;53.184;8.216;2023-12-29T00:24:20;99967.19;;;11.68;100.00
1207;BME280;593;53.184;8.216;2023-12-29T00:26:46;99960.13;;;11.67;100.00
1207;BME280;593;53.184;8.216;2023-12-29T00:29:14;99951.75;;;11.63;100.00
1207;BME280;593;53.184;8.216;2023-12-29T00:31:40;99955.50;;;11.67;100.00
1207;BME280;593;53.184;8.216;2023-12-29T00:34:05;99962.88;;;11.67;100.00
1207;BME280;593;53.184;8.216;2023-12-29T00:36:31;99948.22;;;11.63;100.00
1207;BME280;593;53.184;8.216;2023-12-29T00:38:56;99961.25;;;11.66;100.00
1207;BME280;593;53.184;8.216;2023-12-29T00:41:22;99962.06;;;11.66;100.00
1207;BME280;593;53.184;8.216;2023-12-29T00:43:47;99972.94;;;11.66;100.00
1207;BME280;593;53.184;8.216;2023-12-29T00:46:14;99958.50;;;11.66;100.00
1207;BME280;593;53.184;8.216;2023-12-29T00:48:41;99960.53;;;11.60;100.00
1207;BME280;593;53.184;8.216;2023-12-29T00:51:06;99968.59;;;11.65;100.00
1207;BME280;593;53.184;8.216;2023-12-29T00:53:34;99944.41;;;11.64;100.00
1207;BME280;593;53.184;8.216;2023-12-29T00:56:00;99951.59;;;11.59;100.00
1207;BME280;593;53.184;8.216;2023-12-29T00:58:25;99949.84;;;11.64;100.00
1207;BME280;593;53.184;8.216;2023-12-29T01:00:50;99956.91;;;11.65;100.00
1207;BME280;593;53.184;8.216;2023-12-29T01:03:16;99948.53;;;11.61;100.00
1207;BME280;593;53.184;8.216;2023-12-29T01:05:41;99940.06;;;11.63;100.00
1207;BME280;593;53.184;8.216;2023-12-29T01:08:07;99928.56;;;11.66;100.00
1207;BME280;593;53.184;8.216;2023-12-29T01:10:32;99941.69;;;11.64;100.00
1207;BME280;593;53.184;8.216;2023-12-29T01:12:57;99937.03;;;11.64;100.00
1207;BME280;593;53.184;8.216;2023-12-29T01:15:23;99922.63;;;11.64;100.00
1207;BME280;593;53.184;8.216;2023-12-29T01:17:48;99924.53;;;11.63;100.00
1207;BME280;593;53.184;8.216;2023-12-29T01:20:13;99921.00;;;11.63;100.00
1207;BME280;593;53.184;8.216;2023-12-29T01:22:39;99917.47;;;11.62;100.00
1207;BME280;593;53.184;8.216;2023-12-29T01:25:04;99912.81;;;11.63;100.00
1207;BME280;593;53.184;8.216;2023-12-29T01:27:31;99910.63;;;11.65;100.00
1207;BME280;593;53.184;8.216;2023-12-29T01:29:56;99912.22;;;11.66;100.00
1207;BME280;593;53.184;8.216;2023-12-29T01:32:22;99906.28;;;11.64;100.00
1207;BME280;593;53.184;8.216;2023-12-29T01:34:47;99912.81;;;11.63;100.00
1207;BME280;593;53.184;8.216;2023-12-29T01:37:12;99911.22;;;11.62;100.00
1207;BME280;593;53.184;8.216;2023-12-29T01:39:38;99915.03;;;11.60;100.00
1207;BME280;593;53.184;8.216;2023-12-29T01:42:05;99903.97;;;11.57;100.00
1207;BME280;593;53.184;8.216;2023-12-29T01:44:30;99915.03;;;11.60;100.00
1207;BME280;593;53.184;8.216;2023-12-29T01:47:00;99892.56;;;11.55;100.00
1207;BME280;593;53.184;8.216;2023-12-29T01:49:26;99913.94;;;11.62;100.00
1207;BME280;593;53.184;8.216;2023-12-29T01:51:57;99908.78;;;11.60;100.00
1207;BME280;593;53.184;8.216;2023-12-29T01:54:25;99905.09;;;11.56;100.00
1207;BME280;593;53.184;8.216;2023-12-29T01:56:52;99905.28;;;11.59;100.00
1207;BME280;593;53.184;8.216;2023-12-29T01:59:20;99906.72;;;11.57;100.00
1207;BME280;593;53.184;8.216;2023-12-29T02:01:46;99908.63;;;11.56;100.00
1207;BME280;593;53.184;8.216;2023-12-29T02:04:12;99905.91;;;11.56;100.00
1207;BME280;593;53.184;8.216;2023-12-29T02:06:39;99907.00;;;11.55;100.00
1207;BME280;593;53.184;8.216;2023-12-29T02:09:05;99917.06;;;11.55;100.00
1207;BME280;593;53.184;8.216;2023-12-29T02:11:31;99908.72;;;11.51;100.00
1207;BME280;593;53.184;8.216;2023-12-29T02:13:58;99897.22;;;11.54;100.00
1207;BME280;593;53.184;8.216;2023-12-29T02:19:40;99887.13;;;11.55;100.00
1207;BME280;593;53.184;8.216;2023-12-29T02:22:06;99882.31;;;11.52;100.00
1207;BME280;593;53.184;8.216;2023-12-29T02:24:33;99880.38;;;11.52;100.00
1207;BME280;593;53.184;8.216;2023-12-29T02:29:46;99864.03;;;11.52;100.00
1207;BME280;593;53.184;8.216;2023-12-29T02:32:16;99855.84;;;11.52;100.00
1207;BME280;593;53.184;8.216;2023-12-29T02:34:44;99858.41;;;11.49;100.00
1207;BME280;593;53.184;8.216;2023-12-29T02:37:12;99857.28;;;11.50;100.00
1207;BME280;593;53.184;8.216;2023-12-29T02:39:38;99832.78;;;11.50;100.00
1207;BME280;593;53.184;8.216;2023-12-29T02:42:04;99837.72;;;11.48;100.00
1207;BME280;593;53.184;8.216;2023-12-29T02:44:29;99837.72;;;11.48;100.00
1207;BME280;593;53.184;8.216;2023-12-29T02:46:55;99824.09;;;11.48;100.00
1207;BME280;593;53.184;8.216;2023-12-29T02:49:20;99818.19;;;11.46;100.00
1207;BME280;593;53.184;8.216;2023-12-29T02:51:46;99820.91;;;11.46;100.00
1207;BME280;593;53.184;8.216;2023-12-29T02:54:13;99808.09;;;11.46;100.00
1207;BME280;593;53.184;8.216;2023-12-29T02:56:38;99816.56;;;11.45;100.00
1207;BME280;593;53.184;8.216;2023-12-29T02:59:04;99831.47;;;11.47;100.00
1207;BME280;593;53.184;8.216;2023-12-29T03:01:29;99879.72;;;11.47;100.00
1207;BME280;593;53.184;8.216;2023-12-29T03:03:55;99887.06;;;11.46;100.00
1207;BME280;593;53.184;8.216;2023-12-29T03:06:20;99911.38;;;11.43;100.00
1207;BME280;593;53.184;8.216;2023-12-29T03:08:45;99936.38;;;11.45;100.00
1207;BME280;593;53.184;8.216;2023-12-29T03:11:11;99982.97;;;11.43;100.00
1207;BME280;593;53.184;8.216;2023-12-29T03:13:36;99956.16;;;11.37;100.00
1207;BME280;593;53.184;8.216;2023-12-29T03:16:02;99962.31;;;11.29;100.00
1207;BME280;593;53.184;8.216;2023-12-29T03:18:27;99955.34;;;11.23;100.00
1207;BME280;593;53.184;8.216;2023-12-29T03:20:52;99963.34;;;11.19;100.00
1207;BME280;593;53.184;8.216;2023-12-29T03:23:18;99959.91;;;11.14;100.00
1207;BME280;593;53.184;8.216;2023-12-29T03:25:43;99947.22;;;11.09;100.00
1207;BME280;593;53.184;8.216;2023-12-29T03:28:09;99933.41;;;11.06;100.00
1207;BME280;593;53.184;8.216;2023-12-29T03:30:35;99903.56;;;11.01;100.00
1207;BME280;593;53.184;8.216;2023-12-29T03:33:00;99883.03;;;10.94;100.00
1207;BME280;593;53.184;8.216;2023-12-29T03:35:26;99864.88;;;10.90;100.00
1207;BME280;593;53.184;8.216;2023-12-29T03:37:52;99858.44;;;10.86;100.00
1207;BME280;593;53.184;8.216;2023-12-29T03:40:18;99862.91;;;10.82;100.00
1207;BME280;593;53.184;8.216;2023-12-29T03:42:43;99877.91;;;10.79;100.00
1207;BME280;593;53.184;8.216;2023-12-29T03:45:08;99844.34;;;10.70;100.00
1207;BME280;593;53.184;8.216;2023-12-29T03:47:34;99859.84;;;10.70;100.00
1207;BME280;593;53.184;8.216;2023-12-29T03:50:01;99868.81;;;10.70;100.00
1207;BME280;593;53.184;8.216;2023-12-29T03:52:26;99852.94;;;10.64;100.00
1207;BME280;593;53.184;8.216;2023-12-29T03:54:52;99850.22;;;10.64;100.00
1207;BME280;593;53.184;8.216;2023-12-29T03:57:17;99857.66;;;10.58;100.00
1207;BME280;593;53.184;8.216;2023-12-29T03:59:43;99859.06;;;10.56;100.00
1207;BME280;593;53.184;8.216;2023-12-29T04:02:08;99849.81;;;10.57;100.00
1207;BME280;593;53.184;8.216;2023-12-29T04:04:37;99832.69;;;10.56;100.00
1207;BME280;593;53.184;8.216;2023-12-29T04:07:03;99825.63;;;10.55;100.00
1207;BME280;593;53.184;8.216;2023-12-29T04:09:29;99838.41;;;10.55;100.00
1207;BME280;593;53.184;8.216;2023-12-29T04:11:54;99837.09;;;10.52;100.00
1207;BME280;593;53.184;8.216;2023-12-29T04:14:19;99823.50;;;10.52;100.00
1207;BME280;593;53.184;8.216;2023-12-29T04:16:45;99833.59;;;10.52;100.00
1207;BME280;593;53.184;8.216;2023-12-29T04:19:10;99824.13;;;10.49;100.00
1207;BME280;593;53.184;8.216;2023-12-29T04:21:36;99836.91;;;10.49;100.00
1207;BME280;593;53.184;8.216;2023-12-29T04:24:01;99837.72;;;10.49;100.00
1207;BME280;593;53.184;8.216;2023-12-29T04:26:27;99824.91;;;10.50;100.00
1207;BME280;593;53.184;8.216;2023-12-29T04:28:52;99819.19;;;10.51;100.00
1207;BME280;593;53.184;8.216;2023-12-29T04:31:18;99821.91;;;10.51;100.00
1207;BME280;593;53.184;8.216;2023-12-29T04:33:43;99819.19;;;10.51;100.00
1207;BME280;593;53.184;8.216;2023-12-29T04:36:08;99822.72;;;10.52;100.00
1207;BME280;593;53.184;8.216;2023-12-29T04:38:34;99815.97;;;10.49;100.00
1207;BME280;593;53.184;8.216;2023-12-29T04:40:59;99805.28;;;10.53;100.00
1207;BME280;593;53.184;8.216;2023-12-29T04:43:24;99814.56;;;10.52;100.00
1207;BME280;593;53.184;8.216;2023-12-29T04:45:50;99810.72;;;10.53;100.00
1207;BME280;593;53.184;8.216;2023-12-29T04:48:15;99815.06;;;10.54;100.00
1207;BME280;593;53.184;8.216;2023-12-29T04:50:41;99820.19;;;10.55;100.00
1207;BME280;593;53.184;8.216;2023-12-29T04:53:06;99811.22;;;10.55;100.00
1207;BME280;593;53.184;8.216;2023-12-29T04:55:31;99816.06;;;10.58;100.00
1207;BME280;593;53.184;8.216;2023-12-29T04:57:57;99828.06;;;10.57;100.00
1207;BME280;593;53.184;8.216;2023-12-29T05:00:22;99841.66;;;10.57;100.00
1207;BME280;593;53.184;8.216;2023-12-29T05:02:48;99846.56;;;10.55;100.00
1207;BME280;593;53.184;8.216;2023-12-29T05:05:13;99845.38;;;10.61;100.00
1207;BME280;593;53.184;8.216;2023-12-29T05:07:38;99820.91;;;10.61;100.00
1207;BME280;593;53.184;8.216;2023-12-29T05:10:04;99827.94;;;10.62;100.00
1207;BME280;593;53.184;8.216;2023-12-29T05:12:30;99825.22;;;10.62;100.00
1207;BME280;593;53.184;8.216;2023-12-29T05:14:55;99817.97;;;10.57;100.00
1207;BME280;593;53.184;8.216;2023-12-29T05:17:21;99832.25;;;10.63;100.00
1207;BME280;593;53.184;8.216;2023-12-29T05:19:46;99829.66;;;10.58;100.00
1207;BME280;593;53.184;8.216;2023-12-29T05:22:11;99833.41;;;10.62;100.00
1207;BME280;593;53.184;8.216;2023-12-29T05:24:42;99843.16;;;10.63;100.00
1207;BME280;593;53.184;8.216;2023-12-29T05:27:07;99848.31;;;10.64;100.00
1207;BME280;593;53.184;8.216;2023-12-29T05:29:32;99835.31;;;10.61;100.00
1207;BME280;593;53.184;8.216;2023-12-29T05:31:58;99851.00;;;10.64;100.00
1207;BME280;593;53.184;8.216;2023-12-29T05:34:24;99858.88;;;10.66;100.00
1207;BME280;593;53.184;8.216;2023-12-29T05:36:49;99860.47;;;10.67;100.00
1207;BME280;593;53.184;8.216;2023-12-29T05:39:15;99862.06;;;10.68;100.00
1207;BME280;593;53.184;8.216;2023-12-29T05:41:40;99876.19;;;10.70;100.00
1207;BME280;593;53.184;8.216;2023-12-29T05:44:05;99869.63;;;10.71;100.00
1207;BME280;593;53.184;8.216;2023-12-29T05:46:31;99865.81;;;10.72;100.00
1207;BME280;593;53.184;8.216;2023-12-29T05:48:56;99865.50;;;10.73;100.00
1207;BME280;593;53.184;8.216;2023-12-29T05:51:22;99869.44;;;10.67;100.00
1207;BME280;593;53.184;8.216;2023-12-29T05:53:47;99874.47;;;10.74;100.00
1207;BME280;593;53.184;8.216;2023-12-29T05:56:13;99878.00;;;10.74;100.00
1207;BME280;593;53.184;8.216;2023-12-29T05:58:43;99883.94;;;10.76;100.00
1207;BME280;593;53.184;8.216;2023-12-29T06:01:08;99883.72;;;10.73;100.00
1207;BME280;593;53.184;8.216;2023-12-29T06:03:34;99884.22;;;10.75;100.00
1207;BME280;593;53.184;8.216;2023-12-29T06:06:00;99889.78;;;10.70;100.00
1207;BME280;593;53.184;8.216;2023-12-29T06:08:25;99888.06;;;10.74;100.00
1207;BME280;593;53.184;8.216;2023-12-29T06:10:50;99887.59;;;10.72;100.00
1207;BME280;593;53.184;8.216;2023-12-29T06:13:16;99890.78;;;10.74;100.00
1207;BME280;593;53.184;8.216;2023-12-29T06:15:41;99872.34;;;10.71;100.00
1207;BME280;593;53.184;8.216;2023-12-29T06:18:07;99880.50;;;10.71;100.00
1207;BME280;593;53.184;8.216;2023-12-29T06:20:32;99882.13;;;10.72;100.00
1207;BME280;593;53.184;8.216;2023-12-29T06:22:57;99875.88;;;10.71;100.00
1207;BME280;593;53.184;8.216;2023-12-29T06:25:23;99871.25;;;10.72;100.00
1207;BME280;593;53.184;8.216;2023-12-29T06:27:48;99876.69;;;10.72;100.00
1207;BME280;593;53.184;8.216;2023-12-29T06:30:14;99869.75;;;10.66;100.00
1207;BME280;593;53.184;8.216;2023-12-29T06:32:40;99873.66;;;10.73;100.00
1207;BME280;593;53.184;8.216;2023-12-29T06:35:06;99879.41;;;10.72;100.00
1207;BME280;593;53.184;8.216;2023-12-29T06:37:32;99876.97;;;10.70;100.00
1207;BME280;593;53.184;8.216;2023-12-29T06:39:58;99878.13;;;10.69;100.00
1207;BME280;593;53.184;8.216;2023-12-29T06:42:23;99878.13;;;10.69;100.00
1207;BME280;593;53.184;8.216;2023-12-29T06:44:49;99871.84;;;10.69;100.00
1207;BME280;593;53.184;8.216;2023-12-29T06:47:14;99864.78;;;10.68;100.00
1207;BME280;593;53.184;8.216;2023-12-29T06:49:40;99871.38;;;10.67;100.00
1207;BME280;593;53.184;8.216;2023-12-29T06:52:06;99863.69;;;10.69;100.00
1207;BME280;593;53.184;8.216;2023-12-29T06:54:31;99864.78;;;10.68;100.00
1207;BME280;593;53.184;8.216;2023-12-29T06:56:57;99872.97;;;10.68;100.00
1207;BME280;593;53.184;8.216;2023-12-29T06:59:22;99871.38;;;10.67;100.00
1207;BME280;593;53.184;8.216;2023-12-29T07:01:48;99857.44;;;10.68;100.00
1207;BME280;593;53.184;8.216;2023-12-29T07:04:14;99861.59;;;10.66;100.00
1207;BME280;593;53.184;8.216;2023-12-29T07:06:41;99849.41;;;10.63;100.00
1207;BME280;593;53.184;8.216;2023-12-29T07:09:06;99856.47;;;10.64;100.00
1207;BME280;593;53.184;8.216;2023-12-29T07:11:33;99860.78;;;10.65;100.00
1207;BME280;593;53.184;8.216;2023-12-29T07:13:58;99859.97;;;10.65;100.00
1207;BME280;593;53.184;8.216;2023-12-29T07:16:24;99864.63;;;10.64;100.00
1207;BME280;593;53.184;8.216;2023-12-29T07:18:50;99866.22;;;10.65;100.00
1207;BME280;593;53.184;8.216;2023-12-29T07:21:15;99862.41;;;10.66;100.00
1207;BME280;593;53.184;8.216;2023-12-29T07:23:42;99874.09;;;10.67;100.00
1207;BME280;593;53.184;8.216;2023-12-29T07:26:08;99867.03;;;10.66;100.00
1207;BME280;593;53.184;8.216;2023-12-29T07:28:33;99879.00;;;10.65;100.00
1207;BME280;593;53.184;8.216;2023-12-29T07:31:00;99878.41;;;10.68;100.00
1207;BME280;593;53.184;8.216;2023-12-29T07:33:25;99885.75;;;10.67;100.00
1207;BME280;593;53.184;8.216;2023-12-29T07:35:51;99858.66;;;10.62;100.00
1207;BME280;593;53.184;8.216;2023-12-29T07:38:16;99864.63;;;10.64;100.00
1207;BME280;593;53.184;8.216;2023-12-29T07:40:42;99858.38;;;10.64;100.00
1207;BME280;593;53.184;8.216;2023-12-29T07:43:08;99852.59;;;10.65;100.00
1207;BME280;593;53.184;8.216;2023-12-29T07:45:33;99849.06;;;10.65;100.00
1207;BME280;593;53.184;8.216;2023-12-29T07:47:58;99865.41;;;10.65;100.00
1207;BME280;593;53.184;8.216;2023-12-29T07:50:24;99864.31;;;10.66;100.00
1207;BME280;593;53.184;8.216;2023-12-29T07:52:49;99855.03;;;10.67;100.00
1207;BME280;593;53.184;8.216;2023-12-29T07:55:15;99846.88;;;10.67;100.00
1207;BME280;593;53.184;8.216;2023-12-29T07:57:42;99855.03;;;10.67;100.00
1207;BME280;593;53.184;8.216;2023-12-29T08:00:09;99861.78;;;10.69;100.00
1207;BME280;593;53.184;8.216;2023-12-29T08:02:34;99862.69;;;10.65;100.00
1207;BME280;593;53.184;8.216;2023-12-29T08:05:01;99869.44;;;10.67;100.00
1207;BME280;593;53.184;8.216;2023-12-29T08:07:27;99861.78;;;10.69;100.00
1207;BME280;593;53.184;8.216;2023-12-29T08:09:52;99857.44;;;10.68;100.00
1207;BME280;593;53.184;8.216;2023-12-29T08:12:18;99873.75;;;10.68;100.00
1207;BME280;593;53.184;8.216;2023-12-29T08:14:43;99857.44;;;10.68;100.00
1207;BME280;593;53.184;8.216;2023-12-29T08:17:09;99862.88;;;10.68;100.00
1207;BME280;593;53.184;8.216;2023-12-29T08:19:37;99834.38;;;10.66;100.00
1207;BME280;593;53.184;8.216;2023-12-29T08:22:03;99849.78;;;10.70;100.00
1207;BME280;593;53.184;8.216;2023-12-29T08:24:28;99846.25;;;10.70;100.00
1207;BME280;593;53.184;8.216;2023-12-29T08:26:53;99851.69;;;10.70;100.00
1207;BME280;593;53.184;8.216;2023-12-29T08:29:19;99857.44;;;10.68;100.00
1207;BME280;593;53.184;8.216;2023-12-29T08:31:45;99877.31;;;10.69;100.00
1207;BME280;593;53.184;8.216;2023-12-29T08:34:11;99893.63;;;10.69;100.00
1207;BME280;593;53.184;8.216;2023-12-29T08:36:37;99895.22;;;10.70;100.00
1207;BME280;593;53.184;8.216;2023-12-29T08:39:03;99889.78;;;10.70;100.00
1207;BME280;593;53.184;8.216;2023-12-29T08:41:28;99892.50;;;10.70;100.00
1207;BME280;593;53.184;8.216;2023-12-29T08:43:54;99881.94;;;10.68;100.00
1207;BME280;593;53.184;8.216;2023-12-29T08:46:19;99892.31;;;10.66;100.00
1207;BME280;593;53.184;8.216;2023-12-29T08:48:46;99886.06;;;10.66;100.00
1207;BME280;593;53.184;8.216;2023-12-29T08:51:11;99883.66;;;10.64;100.00
1207;BME280;593;53.184;8.216;2023-12-29T08:53:36;99893.50;;;10.60;100.00
1207;BME280;593;53.184;8.216;2023-12-29T08:56:02;99899.97;;;10.64;100.00
1207;BME280;593;53.184;8.216;2023-12-29T08:58:28;99894.53;;;10.64;100.00
1207;BME280;593;53.184;8.216;2023-12-29T09:00:54;99899.16;;;10.64;100.00
1207;BME280;593;53.184;8.216;2023-12-29T09:03:19;99907.31;;;10.64;100.00
1207;BME280;593;53.184;8.216;2023-12-29T09:05:45;99897.25;;;10.64;100.00
1207;BME280;593;53.184;8.216;2023-12-29T09:08:10;99888.28;;;10.64;100.00
1207;BME280;593;53.184;8.216;2023-12-29T09:10:36;99887.47;;;10.63;100.00
1207;BME280;593;53.184;8.216;2023-12-29T09:13:01;99886.38;;;10.64;100.00
1207;BME280;593;53.184;8.216;2023-12-29T09:15:27;99892.91;;;10.63;100.00
1207;BME280;593;53.184;8.216;2023-12-29T09:17:52;99893.72;;;10.64;100.00
1207;BME280;593;53.184;8.216;2023-12-29T09:20:17;99888.88;;;10.61;100.00
1207;BME280;593;53.184;8.216;2023-12-29T09:22:43;99901.38;;;10.62;100.00
1207;BME280;593;53.184;8.216;2023-12-29T09:25:08;99898.13;;;10.60;100.00
1207;BME280;593;53.184;8.216;2023-12-29T09:27:34;99897.25;;;10.64;100.00
1207;BME280;593;53.184;8.216;2023-12-29T09:29:59;99893.22;;;10.62;100.00
1207;BME280;593;53.184;8.216;2023-12-29T09:32:25;99886.88;;;10.66;100.00
1207;BME280;593;53.184;8.216;2023-12-29T09:34:50;99902.38;;;10.66;100.00
1207;BME280;593;53.184;8.216;2023-12-29T09:37:17;99893.72;;;10.64;100.00
1207;BME280;593;53.184;8.216;2023-12-29T09:39:42;99909.44;;;10.67;100.00
1207;BME280;593;53.184;8.216;2023-12-29T09:42:09;99896.63;;;10.67;100.00
1207;BME280;593;53.184;8.216;2023-12-29T09:44:37;99897.44;;;10.68;100.00
1207;BME280;593;53.184;8.216;2023-12-29T09:47:03;99909.44;;;10.67;100.00
1207;BME280;593;53.184;8.216;2023-12-29T09:49:38;99905.81;;;10.71;100.00
1207;BME280;593;53.184;8.216;2023-12-29T09:52:07;99913.16;;;10.71;100.00
1207;BME280;593;53.184;8.216;2023-12-29T09:54:35;99880.31;;;10.67;100.00
1207;BME280;593;53.184;8.216;2023-12-29T09:57:03;99904.78;;;10.67;100.00
1207;BME280;593;53.184;8.216;2023-12-29T09:59:29;99871.66;;;10.65;100.00
1207;BME280;593;53.184;8.216;2023-12-29T10:01:55;99878.13;;;10.69;100.00
1207;BME280;593;53.184;8.216;2023-12-29T10:04:21;99881.94;;;10.68;100.00
1207;BME280;593;53.184;8.216;2023-12-29T10:06:49;99899.56;;;10.71;100.00
1207;BME280;593;53.184;8.216;2023-12-29T10:09:16;99894.94;;;10.71;100.00
1207;BME280;593;53.184;8.216;2023-12-29T10:11:47;99898.16;;;10.73;100.00
1207;BME280;593;53.184;8.216;2023-12-29T10:14:24;99893.53;;;10.74;100.00
1207;BME280;593;53.184;8.216;2023-12-29T10:17:06;99891.28;;;10.76;100.00
1207;BME280;593;53.184;8.216;2023-12-29T10:19:40;99880.72;;;10.74;100.00
1207;BME280;593;53.184;8.216;2023-12-29T10:22:21;99883.13;;;10.76;100.00
1207;BME280;593;53.184;8.216;2023-12-29T10:24:50;99876.38;;;10.73;100.00
1207;BME280;593;53.184;8.216;2023-12-29T10:27:16;99878.78;;;10.75;100.00
1207;BME280;593;53.184;8.216;2023-12-29T10:29:42;99863.59;;;10.74;100.00
1207;BME280;593;53.184;8.216;2023-12-29T10:32:07;99871.66;;;10.79;100.00
1207;BME280;593;53.184;8.216;2023-12-29T10:34:33;99875.97;;;10.80;100.00
1207;BME280;593;53.184;8.216;2023-12-29T10:36:59;99881.41;;;10.80;100.00
1207;BME280;593;53.184;8.216;2023-12-29T10:39:26;99872.47;;;10.79;100.00
1207;BME280;593;53.184;8.216;2023-12-29T10:42:07;99880.63;;;10.79;100.00
1207;BME280;593;53.184;8.216;2023-12-29T10:44:36;99876.28;;;10.78;100.00
1207;BME280;593;53.184;8.216;2023-12-29T10:47:12;99882.03;;;10.77;100.00
1207;BME280;593;53.184;8.216;2023-12-29T10:49:39;99886.34;;;10.78;100.00
1207;BME280;593;53.184;8.216;2023-12-29T10:52:15;99896.13;;;10.79;100.00
1207;BME280;593;53.184;8.216;2023-12-29T10:54:41;99885.53;;;10.77;100.00
1207;BME280;593;53.184;8.216;2023-12-29T10:57:09;99885.53;;;10.77;100.00
1207;BME280;593;53.184;8.216;2023-12-29T10:59:35;99892.91;;;10.77;100.00
1207;BME280;593;53.184;8.216;2023-12-29T11:02:03;99891.78;;;10.78;100.00
1207;BME280;593;53.184;8.216;2023-12-29T11:04:29;99895.63;;;10.77;100.00
1207;BME280;593;53.184;8.216;2023-12-29T11:06:55;99892.72;;;10.73;100.00
1207;BME280;593;53.184;8.216;2023-12-29T11:09:28;99891.78;;;10.78;100.00
1207;BME280;593;53.184;8.216;2023-12-29T11:11:59;99895.63;;;10.77;100.00
1207;BME280;593;53.184;8.216;2023-12-29T11:14:25;99885.25;;;10.79;100.00
1207;BME280;593;53.184;8.216;2023-12-29T11:16:52;99881.41;;;10.80;100.00
1207;BME280;593;53.184;8.216;2023-12-29T11:19:18;99875.47;;;10.78;100.00
1207;BME280;593;53.184;8.216;2023-12-29T11:21:44;99879.50;;;10.80;100.00
1207;BME280;593;53.184;8.216;2023-12-29T11:24:10;99877.91;;;10.79;100.00
1207;BME280;593;53.184;8.216;2023-12-29T11:26:36;99880.63;;;10.79;100.00
1207;BME280;593;53.184;8.216;2023-12-29T11:29:03;99880.31;;;10.81;100.00
1207;BME280;593;53.184;8.216;2023-12-29T11:31:30;99874.38;;;10.79;100.00
1207;BME280;593;53.184;8.216;2023-12-29T11:34:02;99877.91;;;10.79;100.00
1207;BME280;593;53.184;8.216;2023-12-29T11:36:34;99881.13;;;10.81;100.00
1207;BME280;593;53.184;8.216;2023-12-29T11:39:24;99858.25;;;10.82;100.00
1207;BME280;593;53.184;8.216;2023-12-29T11:42:21;99869.13;;;10.82;100.00
1207;BME280;593;53.184;8.216;2023-12-29T11:44:48;99858.56;;;10.81;100.00
1207;BME280;593;53.184;8.216;2023-12-29T11:47:36;99850.38;;;10.81;100.00
1207;BME280;593;53.184;8.216;2023-12-29T11:50:03;99841.75;;;10.79;100.00
1207;BME280;593;53.184;8.216;2023-12-29T11:52:39;99832.16;;;10.81;100.00
1207;BME280;593;53.184;8.216;2023-12-29T11:55:11;99814.72;;;10.82;100.00
1207;BME280;593;53.184;8.216;2023-12-29T11:57:38;99832.16;;;10.81;100.00
1207;BME280;593;53.184;8.216;2023-12-29T12:00:05;99833.25;;;10.80;100.00
1207;BME280;593;53.184;8.216;2023-12-29T12:02:31;99826.41;;;10.83;100.00
1207;BME280;593;53.184;8.216;2023-12-29T12:04:57;99825.00;;;10.85;100.00
1207;BME280;593;53.184;8.216;2023-12-29T12:10:31;99839.09;;;10.87;100.00
1207;BME280;593;53.184;8.216;2023-12-29T12:12:58;99835.38;;;10.83;100.00
1207;BME280;593;53.184;8.216;2023-12-29T12:20:24;99834.88;;;10.81;100.00
1207;BME280;593;53.184;8.216;2023-12-29T12:23:02;99847.88;;;10.84;100.00
1207;BME280;593;53.184;8.216;2023-12-29T12:25:31;99854.09;;;10.85;100.00
1207;BME280;593;53.184;8.216;2023-12-29T12:28:00;99853.59;;;10.83;100.00
1207;BME280;593;53.184;8.216;2023-12-29T12:30:28;99855.22;;;10.84;100.00
1207;BME280;593;53.184;8.216;2023-12-29T12:32:58;99849.47;;;10.85;100.00
1207;BME280;593;53.184;8.216;2023-12-29T12:35:24;99854.22;;;10.80;100.00
1207;BME280;593;53.184;8.216;2023-12-29T12:38:07;99862.91;;;10.82;100.00
1207;BME280;593;53.184;8.216;2023-12-29T12:40:33;99869.13;;;10.82;100.00
1207;BME280;593;53.184;8.216;2023-12-29T12:42:58;99873.78;;;10.82;100.00
1207;BME280;593;53.184;8.216;2023-12-29T12:45:25;99866.72;;;10.81;100.00
1207;BME280;593;53.184;8.216;2023-12-29T12:47:55;99877.91;;;10.79;100.00
1207;BME280;593;53.184;8.216;2023-12-29T12:50:24;99884.94;;;10.80;100.00
1207;BME280;593;53.184;8.216;2023-12-29T12:52:49;99875.97;;;10.80;100.00
1207;BME280;593;53.184;8.216;2023-12-29T12:55:15;99883.03;;;10.81;100.00
1207;BME280;593;53.184;8.216;2023-12-29T12:57:41;99880.63;;;10.79;100.00
1207;BME280;593;53.184;8.216;2023-12-29T13:00:07;99878.41;;;10.81;100.00
1207;BME280;593;53.184;8.216;2023-12-29T13:02:34;99867.31;;;10.78;100.00
1207;BME280;593;53.184;8.216;2023-12-29T13:05:01;99883.03;;;10.81;100.00
1207;BME280;593;53.184;8.216;2023-12-29T13:07:30;99882.44;;;10.84;100.00
1207;BME280;593;53.184;8.216;2023-12-29T13:09:56;99889.78;;;10.83;100.00
1207;BME280;593;53.184;8.216;2023-12-29T13:12:23;99884.75;;;10.77;100.00
1207;BME280;593;53.184;8.216;2023-12-29T13:14:49;99880.81;;;10.83;100.00
1207;BME280;593;53.184;8.216;2023-12-29T13:17:15;99884.44;;;10.78;100.00
1207;BME280;593;53.184;8.216;2023-12-29T13:19:42;99891.69;;;10.83;100.00
1207;BME280;593;53.184;8.216;2023-12-29T13:22:10;99883.25;;;10.84;100.00
1207;BME280;593;53.184;8.216;2023-12-29T13:24:43;99888.69;;;10.84;100.00
1207;BME280;593;53.184;8.216;2023-12-29T13:27:08;99894.13;;;10.84;100.00
1207;BME280;593;53.184;8.216;2023-12-29T13:29:35;99881.03;;;10.86;100.00
1207;BME280;593;53.184;8.216;2023-12-29T13:32:31;99886.47;;;10.86;100.00